Time;durP1;ratioP1;P1;durP2;ratioP2;P2;SDS_P1;SDS_P2;PMS_P1;PMS_P2;Temp;Humidity;BMP_temperature;BMP_pressure;BME280_temperature;BME280_humidity;BME280_pressure;Samples;Min_cycle;Max_cycle;Signal;HPM_P1;HPM_P2
2022/12/20 00:01:27;;;;;;;1.30;0.50;;;16.90;72.60;;;;;;5020172;28;20047;-80
2022/12/20 00:04:11;;;;;;;0.90;0.50;;;16.90;72.60;;;;;;5039190;28;20079;-79
2022/12/20 00:06:56;;;;;;;1.25;0.50;;;16.90;72.70;;;;;;5025427;28;20440;-78
2022/12/20 00:09:41;;;;;;;1.42;0.70;;;16.80;72.50;;;;;;5036980;28;20079;-79
2022/12/20 00:12:27;;;;;;;1.58;0.75;;;16.80;72.50;;;;;;5040138;28;20055;-79
2022/12/20 00:15:11;;;;;;;1.60;0.70;;;16.80;72.60;;;;;;5056294;28;20510;-79
2022/12/20 00:17:56;;;;;;;1.10;0.50;;;16.70;72.40;;;;;;5042510;28;20043;-80
2022/12/20 00:20:41;;;;;;;0.88;0.70;;;16.70;72.50;;;;;;5054852;28;20446;-80
2022/12/20 00:23:25;;;;;;;1.40;0.57;;;16.60;72.30;;;;;;5046648;28;20032;-82
2022/12/20 00:26:13;;;;;;;1.50;0.70;;;16.60;72.30;;;;;;5062123;28;20526;-81
2022/12/20 00:28:59;;;;;;;2.45;0.68;;;16.60;72.30;;;;;;5037590;28;20215;-80
2022/12/20 00:31:43;;;;;;;1.67;0.60;;;16.60;72.30;;;;;;5053396;28;20093;-80
2022/12/20 00:34:28;;;;;;;1.02;0.57;;;16.60;72.30;;;;;;5032552;28;20052;-79
2022/12/20 00:37:14;;;;;;;0.93;0.77;;;16.60;72.40;;;;;;5034670;28;20104;-80
2022/12/20 00:39:58;;;;;;;0.65;0.60;;;16.50;72.20;;;;;;5044463;28;20039;-81
2022/12/20 00:42:43;;;;;;;1.10;0.52;;;16.50;72.20;;;;;;5029351;28;20085;-80
2022/12/20 00:45:28;;;;;;;1.73;0.90;;;16.50;72.20;;;;;;5024955;28;20115;-80
2022/12/20 00:48:13;;;;;;;0.70;0.60;;;16.50;72.20;;;;;;5028216;28;20785;-80
2022/12/20 00:50:59;;;;;;;1.48;0.68;;;16.40;72.00;;;;;;5033927;28;20872;-80
2022/12/20 00:53:44;;;;;;;1.33;0.60;;;16.40;72.00;;;;;;5031697;28;20513;-81
2022/12/20 00:56:29;;;;;;;0.68;0.55;;;16.40;72.00;;;;;;5030965;28;20067;-81
2022/12/20 00:59:13;;;;;;;0.68;0.50;;;16.40;72.10;;;;;;5043460;28;20036;-81
2022/12/20 01:01:58;;;;;;;2.22;0.50;;;16.30;71.90;;;;;;5038318;28;20036;-81
2022/12/20 01:04:42;;;;;;;1.55;0.63;;;16.30;71.90;;;;;;5033202;28;20051;-80
2022/12/20 01:07:27;;;;;;;1.33;0.50;;;16.30;71.90;;;;;;5041276;28;20116;-81
2022/12/20 01:10:12;;;;;;;0.40;0.35;;;16.30;71.90;;;;;;5043739;28;20103;-80
2022/12/20 01:12:57;;;;;;;0.95;0.52;;;16.30;71.90;;;;;;5032593;28;20047;-83
2022/12/20 01:15:42;;;;;;;0.75;0.55;;;16.20;71.80;;;;;;5035351;28;20535;-82
2022/12/20 01:18:27;;;;;;;1.33;0.43;;;16.20;71.80;;;;;;5031762;28;20101;-83
2022/12/20 01:21:14;;;;;;;1.10;0.50;;;16.20;71.80;;;;;;5041740;28;20558;-80
2022/12/20 01:23:58;;;;;;;0.47;0.30;;;16.20;71.80;;;;;;5053822;28;20047;-79
2022/12/20 01:26:44;;;;;;;1.10;0.60;;;16.10;71.70;;;;;;5061595;28;20456;-80
2022/12/20 01:29:28;;;;;;;1.13;0.73;;;16.10;71.70;;;;;;5055563;28;20060;-80
2022/12/20 01:32:12;;;;;;;1.15;0.40;;;16.10;71.70;;;;;;5057352;28;20097;-80
2022/12/20 01:34:57;;;;;;;1.08;0.40;;;16.10;71.70;;;;;;5027794;28;20261;-79
2022/12/20 01:37:41;;;;;;;1.63;0.38;;;16.10;71.70;;;;;;5031278;28;20388;-81
2022/12/20 01:40:27;;;;;;;0.38;0.30;;;16.10;71.70;;;;;;5036493;28;20048;-80
2022/12/20 01:43:14;;;;;;;0.63;0.30;;;16.10;71.70;;;;;;5045675;28;20408;-79
2022/12/20 01:45:58;;;;;;;0.50;0.40;;;16.00;71.60;;;;;;5039020;28;20052;-79
2022/12/20 01:48:56;;;;;;;0.38;0.25;;;16.00;71.60;;;;;;5048431;28;20596;-81
2022/12/20 01:51:48;;;;;;;0.95;0.38;;;16.00;71.60;;;;;;5046139;28;20174;-81
2022/12/20 01:54:39;;;;;;;0.80;0.47;;;15.90;71.40;;;;;;5051868;28;20666;-80
2022/12/20 01:57:30;;;;;;;1.20;0.30;;;16.00;71.60;;;;;;5043038;28;20079;-81
2022/12/20 02:00:16;;;;;;;0.60;0.30;;;15.90;71.40;;;;;;5057045;28;20404;-81
2022/12/20 02:03:04;;;;;;;0.40;0.30;;;15.90;71.40;;;;;;5044007;28;20039;-81
2022/12/20 02:05:48;;;;;;;1.10;0.40;;;15.90;71.50;;;;;;5034532;28;20170;-79
2022/12/20 02:08:33;;;;;;;0.45;0.45;;;15.90;71.50;;;;;;5060684;28;20071;-80
2022/12/20 02:11:52;;;;;;;1.17;0.40;;;15.80;71.30;;;;;;5034402;28;20518;-82
2022/12/20 02:14:57;;;;;;;0.95;0.40;;;15.90;71.40;;;;;;5043088;28;20052;-82
2022/12/20 02:18:13;;;;;;;1.85;0.77;;;15.80;71.30;;;;;;5046352;28;20591;-82
2022/12/20 02:21:13;;;;;;;0.45;0.30;;;15.80;71.30;;;;;;5040581;28;20098;-82
2022/12/20 02:24:13;;;;;;;0.40;0.28;;;15.80;71.40;;;;;;5019787;28;20049;-82
2022/12/20 02:27:18;;;;;;;1.27;0.40;;;15.70;71.20;;;;;;5031607;28;20051;-85
2022/12/20 02:30:21;;;;;;;0.35;0.32;;;15.80;71.40;;;;;;5053031;28;20099;-84
2022/12/20 02:33:09;;;;;;;1.45;0.52;;;15.70;71.20;;;;;;5041907;28;20506;-81
2022/12/20 02:35:54;;;;;;;0.70;0.40;;;15.70;71.20;;;;;;5029696;28;20052;-82
2022/12/20 02:38:39;;;;;;;1.00;0.38;;;15.70;71.30;;;;;;5036850;28;20043;-82
2022/12/20 02:41:32;;;;;;;0.43;0.30;;;15.70;71.30;;;;;;5038116;28;20302;-82
2022/12/20 02:47:36;;;;;;;0.75;0.35;;;15.60;71.10;;;;;;5042993;28;20128;-79
2022/12/20 02:50:53;;;;;;;0.57;0.40;;;15.60;71.20;;;;;;5054730;28;20056;-79
2022/12/20 02:53:39;;;;;;;0.70;0.30;;;15.60;71.10;;;;;;5040837;28;20047;-80
2022/12/20 02:56:26;;;;;;;0.38;0.30;;;15.60;71.20;;;;;;5044717;28;20047;-79
2022/12/20 02:59:18;;;;;;;2.05;0.40;;;15.50;71.00;;;;;;5042325;28;20048;-80
2022/12/20 03:02:05;;;;;;;1.58;0.55;;;15.50;71.00;;;;;;5042590;28;20067;-81
2022/12/20 03:04:50;;;;;;;0.32;0.32;;;15.50;71.10;;;;;;5044637;28;20179;-80
2022/12/20 03:07:35;;;;;;;2.03;0.68;;;15.40;70.90;;;;;;5043527;28;20472;-81
2022/12/20 03:10:20;;;;;;;0.68;0.50;;;15.40;70.90;;;;;;5041907;28;20106;-81
2022/12/20 03:13:05;;;;;;;0.88;0.63;;;15.40;70.90;;;;;;5047200;28;20510;-79
2022/12/20 03:15:51;;;;;;;1.23;0.40;;;15.40;70.90;;;;;;5042905;28;20183;-79
2022/12/20 03:18:37;;;;;;;1.48;0.40;;;15.40;71.50;;;;;;5037526;28;20425;-80
2022/12/20 03:21:21;;;;;;;1.23;0.60;;;15.30;70.80;;;;;;5045578;28;20545;-80
2022/12/20 03:24:06;;;;;;;3.20;0.52;;;15.30;70.80;;;;;;5030093;28;20464;-79
2022/12/20 03:26:51;;;;;;;1.05;0.50;;;15.20;70.70;;;;;;5041694;28;20233;-79
2022/12/20 03:29:38;;;;;;;1.33;0.40;;;15.20;70.70;;;;;;5043854;28;20404;-78
2022/12/20 03:32:22;;;;;;;0.95;0.30;;;15.20;70.70;;;;;;5031356;28;20068;-78
2022/12/20 03:35:08;;;;;;;0.57;0.35;;;15.20;70.70;;;;;;5033058;28;20063;-78
2022/12/20 03:37:56;;;;;;;2.25;0.50;;;15.10;70.60;;;;;;5019967;28;20028;-79
2022/12/20 03:40:40;;;;;;;0.63;0.38;;;15.10;70.60;;;;;;5041846;28;20063;-78
2022/12/20 03:43:25;;;;;;;1.30;0.40;;;15.10;70.60;;;;;;5043748;28;20035;-79
2022/12/20 03:46:09;;;;;;;0.65;0.50;;;15.10;70.60;;;;;;5035296;28;20232;-78
2022/12/20 03:48:55;;;;;;;2.90;0.60;;;15.10;70.60;;;;;;5034282;28;20511;-77
2022/12/20 03:51:41;;;;;;;0.85;0.30;;;15.00;70.50;;;;;;5040839;28;20037;-78
2022/12/20 03:54:25;;;;;;;1.05;0.40;;;15.10;70.70;;;;;;5044540;28;20098;-79
2022/12/20 03:57:23;;;;;;;1.25;1.00;;;15.00;70.50;;;;;;5037370;28;20130;-79
2022/12/20 04:00:11;;;;;;;0.77;0.30;;;15.00;70.50;;;;;;5044594;28;20499;-78
2022/12/20 04:02:58;;;;;;;1.52;0.50;;;15.00;70.50;;;;;;5038571;28;20648;-77
2022/12/20 04:05:44;;;;;;;1.80;0.50;;;15.00;70.50;;;;;;5044804;28;20439;-78
2022/12/20 04:08:29;;;;;;;3.30;0.70;;;15.00;70.50;;;;;;5057152;28;20297;-78
2022/12/20 04:11:15;;;;;;;3.80;0.63;;;15.00;70.50;;;;;;5050208;28;20090;-78
2022/12/20 04:14:03;;;;;;;1.83;1.05;;;14.90;70.30;;;;;;5044050;28;20480;-79
2022/12/20 04:16:48;;;;;;;1.27;0.60;;;14.90;70.40;;;;;;5044630;28;20749;-79
2022/12/20 04:19:34;;;;;;;0.90;0.50;;;14.80;70.20;;;;;;5041960;28;20039;-79
2022/12/20 04:22:20;;;;;;;2.92;0.60;;;14.80;70.30;;;;;;5038728;28;20132;-78
2022/12/20 04:25:12;;;;;;;1.65;0.50;;;14.80;70.40;;;;;;5034248;28;20063;-78
2022/12/20 04:27:57;;;;;;;1.13;0.50;;;14.70;70.30;;;;;;5036321;28;20419;-78
2022/12/20 04:30:42;;;;;;;1.27;0.50;;;14.60;70.20;;;;;;5044340;28;20281;-78
2022/12/20 04:33:28;;;;;;;2.33;0.50;;;14.70;70.90;;;;;;5043959;28;20522;-78
2022/12/20 04:36:13;;;;;;;1.80;0.50;;;14.60;70.30;;;;;;5045189;28;20503;-79
2022/12/20 04:38:58;;;;;;;2.15;0.73;;;14.60;70.30;;;;;;5056410;28;20448;-78
2022/12/20 04:41:43;;;;;;;1.23;0.30;;;14.50;70.10;;;;;;5037512;28;20396;-78
2022/12/20 04:44:30;;;;;;;1.15;0.40;;;14.60;70.30;;;;;;5044153;28;20266;-78
2022/12/20 04:47:14;;;;;;;1.08;0.47;;;14.60;70.30;;;;;;5055952;28;20051;-79
2022/12/20 04:49:59;;;;;;;0.73;0.63;;;14.60;70.30;;;;;;5039776;28;20114;-78
2022/12/20 04:55:48;;;;;;;0.50;0.40;;;14.50;70.10;;;;;;5035622;28;20039;-78
2022/12/20 04:58:33;;;;;;;1.98;0.55;;;14.50;70.10;;;;;;5037845;28;20577;-79
2022/12/20 05:01:20;;;;;;;0.85;0.55;;;14.50;70.10;;;;;;5044079;28;20658;-79
2022/12/20 05:04:08;;;;;;;2.40;0.60;;;14.50;70.00;;;;;;5042773;28;20047;-79
2022/12/20 05:06:54;;;;;;;1.73;0.90;;;14.50;70.00;;;;;;5052247;28;20544;-79
2022/12/20 05:09:39;;;;;;;2.05;1.00;;;14.40;69.80;;;;;;5040635;28;20072;-78
2022/12/20 05:12:24;;;;;;;3.17;0.60;;;14.50;70.10;;;;;;5046042;28;20036;-79
2022/12/20 05:15:09;;;;;;;4.47;0.55;;;14.40;69.80;;;;;;5044996;28;20066;-79
2022/12/20 05:17:58;;;;;;;3.22;1.00;;;14.40;69.80;;;;;;5047413;28;20116;-79
2022/12/20 05:20:43;;;;;;;4.50;0.82;;;14.40;69.90;;;;;;5047135;28;20515;-78
2022/12/20 05:26:37;;;;;;;1.77;0.57;;;14.40;69.90;;;;;;5025289;28;20401;-78
2022/12/20 05:29:22;;;;;;;4.75;1.08;;;14.50;70.10;;;;;;5045569;28;20110;-78
2022/12/20 05:32:07;;;;;;;3.58;0.80;;;14.50;70.10;;;;;;5046815;28;20452;-78
2022/12/20 05:34:56;;;;;;;5.13;1.17;;;14.50;70.10;;;;;;5045972;28;20499;-78
2022/12/20 05:37:40;;;;;;;3.97;0.95;;;14.50;70.00;;;;;;5046382;28;20068;-79
2022/12/20 05:40:32;;;;;;;5.50;1.25;;;14.50;70.00;;;;;;5043618;28;20043;-78
2022/12/20 05:43:18;;;;;;;4.22;0.80;;;14.60;70.20;;;;;;5048967;28;20559;-77
2022/12/20 05:46:03;;;;;;;7.53;0.90;;;14.60;70.20;;;;;;5054123;28;20078;-76
2022/12/20 05:48:58;;;;;;;3.17;0.98;;;14.60;70.20;;;;;;5051855;28;20404;-76
2022/12/20 05:51:42;;;;;;;3.60;0.70;;;14.60;70.20;;;;;;5043158;28;20048;-76
2022/12/20 05:54:38;;;;;;;9.15;1.83;;;14.60;70.10;;;;;;5061041;28;20036;-74
2022/12/20 05:57:29;;;;;;;4.05;1.02;;;14.60;70.10;;;;;;5037170;28;20054;-79
2022/12/20 06:00:14;;;;;;;4.55;1.27;;;14.70;70.20;;;;;;5049867;28;20058;-80
2022/12/20 06:03:01;;;;;;;3.50;0.90;;;14.60;70.00;;;;;;5049135;28;20099;-80
2022/12/20 06:05:46;;;;;;;9.10;1.83;;;14.60;70.00;;;;;;5044678;28;20059;-90
2022/12/20 06:08:35;;;;;;;5.40;1.30;;;14.70;70.20;;;;;;5049036;28;20376;-92
2022/12/20 06:11:22;;;;;;;4.88;0.98;;;14.60;69.90;;;;;;5044992;28;20075;-88
2022/12/20 06:14:16;;;;;;;9.85;2.22;;;14.60;69.90;;;;;;5030781;28;20044;-88
2022/12/20 06:17:04;;;;;;;4.00;1.23;;;14.40;69.60;;;;;;5044446;28;20047;-83
2022/12/20 06:19:49;;;;;;;5.72;1.33;;;14.30;69.50;;;;;;5053842;28;20137;-86
2022/12/20 06:22:36;;;;;;;7.47;1.70;;;14.20;69.50;;;;;;5053726;28;20302;-78
2022/12/20 06:25:21;;;;;;;5.25;1.67;;;14.00;69.40;;;;;;5061401;28;20089;-78
2022/12/20 06:28:07;;;;;;;3.38;0.88;;;13.90;69.40;;;;;;5054259;28;20043;-78
2022/12/20 06:30:56;;;;;;;5.43;1.00;;;13.70;69.80;;;;;;5036501;28;20055;-81
2022/12/20 06:33:54;;;;;;;6.18;1.70;;;13.60;69.40;;;;;;5050241;28;20170;-80
2022/12/20 06:36:40;;;;;;;5.78;1.20;;;13.50;69.40;;;;;;5019640;28;20142;-78
2022/12/20 06:39:27;;;;;;;6.80;1.40;;;13.40;69.50;;;;;;5032833;28;20258;-79
2022/12/20 06:42:23;;;;;;;2.95;1.00;;;13.30;69.50;;;;;;5024911;28;20044;-90
2022/12/20 06:45:08;;;;;;;4.25;1.02;;;13.20;69.50;;;;;;5040028;28;20589;-94
2022/12/20 06:47:53;;;;;;;3.83;0.80;;;13.00;69.30;;;;;;5018379;28;20098;-83
2022/12/20 06:50:40;;;;;;;5.85;1.10;;;13.00;69.40;;;;;;5032175;28;20531;-85
2022/12/20 06:53:25;;;;;;;7.15;1.63;;;12.90;69.40;;;;;;5022104;28;20604;-87
2022/12/20 06:56:09;;;;;;;7.03;1.17;;;12.80;69.40;;;;;;5031661;28;20393;-86
2022/12/20 06:58:54;;;;;;;6.28;1.20;;;12.70;69.50;;;;;;5044930;28;20087;-87
2022/12/20 07:01:40;;;;;;;6.45;1.10;;;12.70;69.60;;;;;;5022696;28;20507;-84
2022/12/20 07:04:25;;;;;;;5.35;1.17;;;12.70;69.70;;;;;;5029809;28;20123;-78
2022/12/20 07:07:12;;;;;;;4.88;1.15;;;12.60;69.60;;;;;;5031626;28;20425;-79
2022/12/20 07:09:56;;;;;;;6.18;1.35;;;12.50;69.50;;;;;;5036321;28;20265;-77
2022/12/20 07:12:41;;;;;;;6.28;1.10;;;12.50;69.60;;;;;;5029826;28;20060;-93
2022/12/20 07:15:25;;;;;;;3.30;1.23;;;12.40;69.40;;;;;;5033479;28;20153;-91
2022/12/20 07:18:10;;;;;;;5.63;1.23;;;12.30;69.40;;;;;;5022509;28;20044;-95
2022/12/20 07:21:02;;;;;;;5.80;1.48;;;12.20;69.30;;;;;;5042746;28;20095;-96
2022/12/20 07:23:47;;;;;;;8.25;1.27;;;12.20;70.00;;;;;;5030942;28;20070;-95
2022/12/20 07:26:31;;;;;;;7.18;2.13;;;12.10;69.40;;;;;;5050792;28;20373;-93
2022/12/20 07:29:16;;;;;;;6.15;1.00;;;12.00;69.30;;;;;;5046547;28;20175;-89
2022/12/20 07:32:01;;;;;;;5.13;1.27;;;11.90;69.20;;;;;;5053259;28;20393;-83
2022/12/20 07:34:45;;;;;;;6.82;1.20;;;11.90;69.40;;;;;;5034216;28;20139;-94
2022/12/20 07:37:30;;;;;;;6.85;2.00;;;11.80;69.30;;;;;;5026236;28;20079;-88
2022/12/20 07:40:15;;;;;;;9.45;1.63;;;11.80;69.40;;;;;;5035832;28;20036;-89
2022/12/20 07:42:59;;;;;;;8.40;1.27;;;11.70;69.30;;;;;;5034458;28;20064;-93
2022/12/20 07:45:44;;;;;;;8.15;2.13;;;11.70;69.40;;;;;;5031881;28;20406;-86
2022/12/20 07:48:29;;;;;;;3.83;1.23;;;11.60;69.30;;;;;;5038091;28;20110;-86
2022/12/20 07:51:30;;;;;;;6.20;1.40;;;11.60;69.40;;;;;;5023205;28;20268;-86
2022/12/20 07:54:21;;;;;;;7.07;1.38;;;11.50;69.40;;;;;;5025605;28;20082;-84
2022/12/20 07:57:12;;;;;;;8.13;2.33;;;11.50;69.50;;;;;;5025932;28;20044;-87
2022/12/20 07:59:59;;;;;;;8.15;1.63;;;11.40;69.40;;;;;;5028438;28;20052;-84
2022/12/20 08:02:59;;;;;;;6.90;1.30;;;11.40;69.40;;;;;;5030676;28;20044;-85
2022/12/20 08:05:47;;;;;;;8.07;1.88;;;11.40;69.50;;;;;;5033447;28;20048;-86
2022/12/20 08:08:33;;;;;;;6.53;2.03;;;11.30;69.40;;;;;;5021204;28;20180;-85
2022/12/20 08:11:20;;;;;;;9.57;1.23;;;11.30;69.50;;;;;;5034946;28;20429;-87
2022/12/20 08:14:07;;;;;;;6.40;1.42;;;11.30;69.50;;;;;;5021732;28;20129;-86
2022/12/20 08:16:51;;;;;;;9.07;1.70;;;11.20;69.40;;;;;;5021712;28;20980;-84
2022/12/20 08:19:37;;;;;;;7.78;1.77;;;11.20;69.50;;;;;;5046934;28;20116;-83
2022/12/20 08:22:22;;;;;;;6.95;1.52;;;11.20;69.60;;;;;;5009849;28;20044;-87
2022/12/20 08:25:07;;;;;;;6.80;1.83;;;11.10;69.50;;;;;;5031624;28;20098;-87
2022/12/20 08:27:52;;;;;;;7.60;1.60;;;11.10;69.50;;;;;;5038597;28;20071;-87
2022/12/20 08:30:36;;;;;;;5.70;1.60;;;11.00;69.40;;;;;;5046574;28;20055;-88
2022/12/20 08:33:21;;;;;;;7.22;1.75;;;11.00;69.50;;;;;;5051429;28;20159;-89
2022/12/20 08:36:08;;;;;;;7.15;2.50;;;11.00;69.60;;;;;;5029518;28;20133;-83
2022/12/20 08:38:53;;;;;;;8.40;1.55;;;11.00;69.70;;;;;;5042913;28;20048;-80
2022/12/20 08:41:37;;;;;;;11.45;2.00;;;10.90;69.50;;;;;;5022299;28;20555;-80
2022/12/20 08:44:22;;;;;;;9.13;2.35;;;10.90;69.60;;;;;;5037850;28;20478;-80
2022/12/20 08:47:07;;;;;;;13.18;3.28;;;10.90;69.70;;;;;;5042074;28;20111;-80
2022/12/20 08:49:51;;;;;;;5.78;1.70;;;10.90;69.70;;;;;;5047118;28;20056;-91
2022/12/20 08:52:36;;;;;;;9.07;2.25;;;10.90;69.70;;;;;;5050267;28;20543;-89
2022/12/20 08:55:20;;;;;;;12.80;2.25;;;10.80;69.60;;;;;;5034646;28;20452;-91
2022/12/20 08:58:05;;;;;;;4.82;1.52;;;10.90;69.80;;;;;;5041697;28;20052;-89
2022/12/20 09:00:50;;;;;;;8.32;1.58;;;10.80;69.60;;;;;;5033943;28;20036;-95
2022/12/20 09:03:35;;;;;;;10.63;1.70;;;10.80;69.70;;;;;;5040072;28;20036;-92
2022/12/20 09:06:22;;;;;;;6.10;2.00;;;10.80;69.70;;;;;;5026275;28;20643;-84
2022/12/20 09:09:07;;;;;;;7.00;1.92;;;10.80;69.80;;;;;;5027981;28;20137;-79
2022/12/20 09:11:51;;;;;;;9.65;2.08;;;10.90;69.90;;;;;;5030490;28;20419;-79
2022/12/20 09:14:36;;;;;;;7.35;2.05;;;10.90;69.90;;;;;;5036545;28;20564;-79
2022/12/20 09:17:21;;;;;;;10.52;2.63;;;10.90;69.80;;;;;;5029623;28;20055;-80
2022/12/20 09:20:06;;;;;;;10.60;2.08;;;11.00;69.90;;;;;;5051140;28;20635;-80
2022/12/20 09:22:51;;;;;;;6.82;2.10;;;11.00;69.80;;;;;;5035548;28;20068;-83
2022/12/20 09:25:36;;;;;;;7.10;2.03;;;11.00;69.80;;;;;;5027686;28;20516;-87
2022/12/20 09:28:21;;;;;;;9.75;2.00;;;11.00;69.80;;;;;;5035682;28;20047;-88
2022/12/20 09:31:10;;;;;;;11.38;3.88;;;11.10;69.90;;;;;;5029964;28;20088;-91
2022/12/20 09:33:56;;;;;;;7.88;2.30;;;11.10;69.90;;;;;;5045179;28;20058;-88
2022/12/20 09:36:40;;;;;;;8.27;2.65;;;11.10;69.90;;;;;;5029710;28;20080;-87
2022/12/20 09:39:26;;;;;;;6.90;2.13;;;11.10;70.40;;;;;;5043176;28;20106;-85
2022/12/20 09:42:14;;;;;;;5.55;1.75;;;11.20;70.00;;;;;;5035849;28;20565;-89
2022/12/20 09:45:26;;;;;;;11.40;2.65;;;11.20;70.00;;;;;;5038139;28;20574;-91
2022/12/20 09:48:23;;;;;;;8.77;2.65;;;11.30;70.10;;;;;;5035604;28;20052;-92
2022/12/20 09:51:31;;;;;;;9.18;2.00;;;11.30;70.00;;;;;;5026105;28;20064;-87
2022/12/20 09:54:21;;;;;;;8.55;2.17;;;11.40;70.40;;;;;;5025831;28;20128;-91
2022/12/20 09:57:31;;;;;;;9.18;2.08;;;11.40;70.30;;;;;;5034745;28;20044;-88
2022/12/20 10:00:18;;;;;;;9.68;2.67;;;11.50;70.40;;;;;;5044197;28;20067;-86
2022/12/20 10:03:04;;;;;;;9.80;2.38;;;11.60;70.50;;;;;;5031533;28;20113;-93
2022/12/20 10:05:53;;;;;;;7.22;2.28;;;11.50;70.30;;;;;;5040768;28;20163;-94
2022/12/20 10:08:41;;;;;;;8.32;1.90;;;11.60;70.50;;;;;;5035819;28;20044;-94
2022/12/20 10:11:49;;;;;;;9.88;2.55;;;11.60;70.50;;;;;;5034104;28;20075;-89
2022/12/20 10:15:06;;;;;;;8.68;1.88;;;11.70;70.60;;;;;;5030342;28;20048;-92
2022/12/20 10:18:09;;;;;;;6.55;1.70;;;11.70;70.50;;;;;;5038790;28;20424;-89
2022/12/20 10:21:13;;;;;;;13.70;2.03;;;11.70;70.40;;;;;;5027692;28;20060;-89
2022/12/20 10:24:01;;;;;;;10.02;1.95;;;11.80;70.40;;;;;;5034894;28;21517;-95
2022/12/20 10:26:50;;;;;;;9.63;1.98;;;11.80;70.30;;;;;;5025084;28;20045;-85
2022/12/20 10:29:34;;;;;;;10.80;2.28;;;11.80;70.30;;;;;;5031019;28;20060;-81
2022/12/20 10:32:22;;;;;;;8.55;1.92;;;11.90;70.30;;;;;;5037633;28;20095;-91
2022/12/20 10:35:09;;;;;;;12.65;1.95;;;11.90;70.30;;;;;;5037816;28;20237;-91
2022/12/20 10:37:58;;;;;;;8.63;2.25;;;11.90;70.30;;;;;;5028049;28;20037;-92
2022/12/20 10:40:57;;;;;;;6.47;1.65;;;11.90;70.40;;;;;;5027175;28;20039;-93
2022/12/20 10:43:46;;;;;;;8.90;3.13;;;11.90;70.40;;;;;;5037874;28;20110;-94
2022/12/20 10:46:41;;;;;;;10.32;2.60;;;11.90;70.40;;;;;;5045124;28;20103;-94
2022/12/20 10:49:41;;;;;;;8.55;2.88;;;11.90;70.40;;;;;;5035939;28;20060;-94
2022/12/20 10:52:25;;;;;;;16.35;4.78;;;11.90;70.40;;;;;;5030314;28;20056;-92
2022/12/20 10:55:40;;;;;;;11.50;1.80;;;11.80;70.30;;;;;;5041628;28;20058;-87
2022/12/20 10:58:29;;;;;;;;;;;11.80;70.30;;;;;;5013051;28;20110;-88
2022/12/20 11:01:17;;;;;;;11.77;2.15;;;11.80;70.30;;;;;;5024802;28;20438;-86
2022/12/20 11:04:06;;;;;;;8.13;2.10;;;11.80;70.30;;;;;;5030307;28;20044;-83
2022/12/20 11:06:50;;;;;;;11.30;3.13;;;11.80;70.30;;;;;;5023843;28;20043;-88
2022/12/20 11:09:36;;;;;;;13.90;3.67;;;11.80;70.50;;;;;;5047079;28;20129;-89
2022/12/20 11:12:21;;;;;;;11.25;2.55;;;11.80;70.60;;;;;;5023687;28;20401;-87
2022/12/20 11:15:19;;;;;;;9.43;2.92;;;11.80;70.70;;;;;;5022181;28;20501;-80
2022/12/20 11:18:14;;;;;;;12.90;3.03;;;11.90;71.00;;;;;;5025990;28;20052;-84
2022/12/20 11:21:14;;;;;;;7.18;2.03;;;11.90;71.20;;;;;;5042780;28;20051;-82
2022/12/20 11:24:21;;;;;;;10.10;2.58;;;12.10;72.00;;;;;;5036227;28;20412;-78
2022/12/20 11:27:31;;;;;;;12.52;3.65;;;12.30;72.50;;;;;;5023272;28;20044;-78
2022/12/20 11:30:19;;;;;;;10.90;2.33;;;12.60;72.70;;;;;;5041247;28;20494;-79
2022/12/20 11:33:22;;;;;;;9.88;3.00;;;12.80;72.40;;;;;;5041846;28;20047;-79
2022/12/20 11:36:32;;;;;;;8.98;1.85;;;13.00;72.50;;;;;;5037953;28;20075;-79
2022/12/20 11:39:34;;;;;;;7.22;1.90;;;13.20;72.30;;;;;;5039472;28;20100;-83
2022/12/20 11:42:25;;;;;;;12.88;2.28;;;13.40;72.20;;;;;;5045259;28;20561;-85
2022/12/20 11:45:23;;;;;;;7.65;3.08;;;13.60;72.20;;;;;;5046368;28;20035;-88
2022/12/20 11:48:35;;;;;;;11.18;2.30;;;13.80;72.30;;;;;;5054069;28;20428;-88
2022/12/20 11:51:28;;;;;;;9.65;2.72;;;13.90;72.10;;;;;;5037860;28;20134;-85
2022/12/20 11:54:22;;;;;;;10.02;2.95;;;13.90;71.90;;;;;;5044503;28;20098;-85
2022/12/20 11:57:19;;;;;;;8.75;2.17;;;14.00;72.00;;;;;;5041920;28;20064;-84
2022/12/20 12:00:05;;;;;;;9.93;2.65;;;14.10;72.30;;;;;;5055457;28;20511;-84
2022/12/20 12:03:03;;;;;;;9.13;2.40;;;14.30;72.40;;;;;;5042757;28;20131;-80
2022/12/20 12:05:55;;;;;;;15.15;3.20;;;14.40;72.30;;;;;;5047313;28;20294;-79
2022/12/20 12:09:05;;;;;;;8.00;2.45;;;14.60;72.20;;;;;;5036496;28;20506;-79
2022/12/20 12:12:11;;;;;;;9.07;2.90;;;14.70;72.00;;;;;;5072324;28;20124;-79
2022/12/20 12:15:14;;;;;;;10.82;2.78;;;14.90;72.10;;;;;;5039817;28;20523;-79
2022/12/20 12:18:25;;;;;;;6.68;2.08;;;14.90;71.90;;;;;;5046047;28;20519;-79
2022/12/20 12:21:23;;;;;;;5.22;2.65;;;15.00;71.90;;;;;;5057272;28;20052;-79
2022/12/20 12:24:44;;;;;;;5.93;1.80;;;15.10;71.70;;;;;;5049995;28;20728;-78
2022/12/20 12:27:29;;;;;;;11.77;2.22;;;15.20;71.70;;;;;;5032045;28;20055;-78
2022/12/20 12:30:15;;;;;;;6.57;2.28;;;15.30;71.70;;;;;;5043865;28;20061;-79
2022/12/20 12:33:04;;;;;;;6.95;2.40;;;15.40;71.70;;;;;;5053075;28;20044;-79
2022/12/20 12:36:11;;;;;;;7.35;2.45;;;15.50;71.60;;;;;;5030026;28;20048;-79
2022/12/20 12:39:13;;;;;;;11.18;2.38;;;15.60;71.50;;;;;;5039146;28;20028;-80
2022/12/20 12:42:16;;;;;;;7.95;3.08;;;15.70;71.40;;;;;;5040635;28;20051;-84
2022/12/20 12:45:26;;;;;;;10.50;2.55;;;15.80;71.30;;;;;;5025448;28;20075;-81
2022/12/20 12:48:50;;;;;;;10.27;2.88;;;15.90;71.10;;;;;;5041667;28;20084;-86
2022/12/20 12:51:38;;;;;;;6.45;2.42;;;16.10;71.00;;;;;;5034210;28;20049;-83
2022/12/20 12:54:33;;;;;;;5.30;1.98;;;16.30;71.00;;;;;;5029718;28;20079;-81
2022/12/20 12:57:18;;;;;;;6.20;2.25;;;16.40;70.80;;;;;;5028536;28;20129;-82
2022/12/20 13:00:02;;;;;;;10.18;2.72;;;16.40;70.50;;;;;;5027835;28;20582;-82
2022/12/20 13:02:50;;;;;;;9.57;1.92;;;16.50;70.40;;;;;;5046674;28;20040;-83
2022/12/20 13:05:35;;;;;;;9.30;2.30;;;16.60;70.20;;;;;;5048712;28;20089;-78
2022/12/20 13:08:47;;;;;;;6.50;2.60;;;16.70;70.10;;;;;;5057620;28;20087;-82
2022/12/20 13:11:40;;;;;;;7.35;2.17;;;16.80;69.80;;;;;;5053025;28;20055;-82
2022/12/20 13:14:28;;;;;;;6.50;1.80;;;16.80;69.80;;;;;;5031657;28;20286;-79
2022/12/20 13:17:18;;;;;;;7.80;2.40;;;16.90;69.70;;;;;;5035783;28;20097;-84
2022/12/20 13:20:25;;;;;;;8.77;2.95;;;17.00;69.50;;;;;;5057940;28;20437;-85
2022/12/20 13:23:11;;;;;;;5.32;1.90;;;17.00;69.10;;;;;;5061465;28;20088;-83
2022/12/20 13:25:56;;;;;;;6.13;2.08;;;17.10;69.20;;;;;;5053947;28;20041;-81
2022/12/20 13:28:45;;;;;;;10.38;2.20;;;17.10;69.00;;;;;;5059516;28;20115;-82
2022/12/20 13:31:31;;;;;;;7.55;2.88;;;17.10;68.80;;;;;;5065855;28;20599;-84
2022/12/20 13:34:37;;;;;;;8.65;2.20;;;17.10;68.70;;;;;;5050818;28;21165;-80
2022/12/20 13:37:45;;;;;;;10.25;2.58;;;17.10;68.40;;;;;;5046294;28;20043;-81
2022/12/20 13:40:43;;;;;;;7.47;2.40;;;17.20;68.60;;;;;;5039075;28;20052;-81
2022/12/20 13:43:36;;;;;;;7.97;2.30;;;17.20;68.40;;;;;;5047444;28;20044;-81
2022/12/20 13:46:26;;;;;;;;;;;17.20;68.40;;;;;;5039253;28;20117;-80
2022/12/20 13:49:18;;;;;;;8.45;2.15;;;17.10;68.30;;;;;;5029590;28;19964;-80
2022/12/20 13:52:28;;;;;;;7.88;2.50;;;17.10;68.40;;;;;;5038198;28;20403;-79
2022/12/20 13:55:31;;;;;;;8.60;3.08;;;17.10;68.00;;;;;;5025657;28;20064;-82
2022/12/20 13:58:43;;;;;;;6.80;2.10;;;17.10;68.00;;;;;;5023887;28;20405;-81
2022/12/20 14:01:30;;;;;;;9.15;2.10;;;17.10;68.10;;;;;;5025751;28;20091;-81
2022/12/20 14:04:16;;;;;;;7.97;2.35;;;17.10;68.00;;;;;;5031396;28;20048;-81
2022/12/20 14:07:01;;;;;;;10.43;2.17;;;17.10;67.90;;;;;;5029704;28;20447;-81
2022/12/20 14:09:53;;;;;;;6.68;2.53;;;17.00;68.20;;;;;;5054236;28;20090;-82
2022/12/20 14:12:43;;;;;;;10.68;3.42;;;17.00;67.50;;;;;;5042656;28;20060;-80
2022/12/20 14:15:32;;;;;;;5.43;1.92;;;17.00;67.40;;;;;;5044591;28;20045;-82
2022/12/20 14:18:23;;;;;;;7.63;2.22;;;17.10;67.50;;;;;;5037508;28;20527;-88
2022/12/20 14:21:09;;;;;;;9.27;2.88;;;17.10;67.20;;;;;;5039478;28;20048;-87
2022/12/20 14:23:56;;;;;;;8.73;2.47;;;17.20;67.30;;;;;;5046664;28;20193;-90
2022/12/20 14:26:50;;;;;;;9.93;3.08;;;17.20;67.20;;;;;;5042374;28;20504;-92
2022/12/20 14:29:34;;;;;;;6.90;1.88;;;17.30;67.20;;;;;;5050963;28;20055;-89
2022/12/20 14:32:19;;;;;;;12.63;2.47;;;17.30;67.20;;;;;;5050086;28;20110;-84
2022/12/20 14:35:05;;;;;;;10.90;2.25;;;17.40;67.20;;;;;;5023723;28;20111;-84
2022/12/20 14:37:55;;;;;;;10.43;2.85;;;17.40;67.10;;;;;;5030466;28;20067;-84
2022/12/20 14:40:41;;;;;;;6.93;2.60;;;17.40;67.00;;;;;;5044654;28;20239;-83
2022/12/20 14:43:33;;;;;;;7.85;2.55;;;17.40;66.90;;;;;;5035916;28;20549;-81
2022/12/20 14:46:21;;;;;;;8.70;3.05;;;17.40;66.80;;;;;;5050237;28;20043;-82
2022/12/20 14:49:18;;;;;;;7.28;2.45;;;17.40;66.80;;;;;;5040861;28;20075;-82
2022/12/20 14:52:11;;;;;;;8.80;2.70;;;17.40;66.70;;;;;;5044665;28;20064;-84